createdAt,value
2022-09-23T00:01:14.382Z,101910.66
2022-09-23T00:03:43.009Z,101911.66
2022-09-23T00:06:21.727Z,101904.00
2022-09-23T00:08:49.906Z,101904.09
2022-09-23T00:11:23.143Z,101907.59
2022-09-23T00:13:52.026Z,101902.53
2022-09-23T00:16:30.402Z,101905.09
2022-09-23T00:18:57.393Z,101904.31
2022-09-23T00:21:25.403Z,101908.69
2022-09-23T00:23:52.301Z,101896.78
2022-09-23T00:26:21.190Z,101912.09
2022-09-23T00:28:49.210Z,101913.84
2022-09-23T00:31:19.364Z,101912.97
2022-09-23T00:33:46.273Z,101917.41
2022-09-23T00:36:17.729Z,101907.13
2022-09-23T00:38:45.401Z,101911.41
2022-09-23T00:41:15.462Z,101909.81
2022-09-23T00:43:47.025Z,101911.53
2022-09-23T00:46:17.856Z,101915.66
2022-09-23T00:48:46.124Z,101907.19
2022-09-23T00:51:19.419Z,101904.53
2022-09-23T00:53:49.023Z,101909.88
2022-09-23T00:56:16.227Z,101909.19
2022-09-23T00:58:45.580Z,101911.97
2022-09-23T01:01:14.653Z,101911.22
2022-09-23T01:03:46.070Z,101908.72
2022-09-23T01:06:13.793Z,101908.03
2022-09-23T01:08:43.491Z,101909.06
2022-09-23T01:11:28.408Z,101913.53
2022-09-23T01:14:26.595Z,101917.00
2022-09-23T01:17:09.298Z,101911.03
2022-09-23T01:20:03.756Z,101915.38
2022-09-23T01:22:44.259Z,101914.41
2022-09-23T01:25:32.708Z,101910.78
2022-09-23T01:28:05.688Z,101910.84
2022-09-23T01:30:44.652Z,101925.75
2022-09-23T01:33:22.625Z,101919.84
2022-09-23T01:36:30.939Z,101928.69
2022-09-23T01:39:17.453Z,101920.16
2022-09-23T01:41:56.925Z,101922.88
2022-09-23T01:44:39.489Z,101935.13
2022-09-23T01:47:16.366Z,101925.56
2022-09-23T01:50:29.798Z,101929.00
2022-09-23T01:53:01.867Z,101908.44
2022-09-23T01:55:34.032Z,101918.50
2022-09-23T01:58:27.201Z,101921.03
2022-09-23T02:01:01.097Z,101923.59
2022-09-23T02:04:18.219Z,101925.28
2022-09-23T02:07:29.864Z,101914.97
2022-09-23T02:10:07.614Z,101913.34
2022-09-23T02:12:38.962Z,101909.97
2022-09-23T02:15:08.982Z,101915.16
2022-09-23T02:17:48.620Z,101912.72
2022-09-23T02:20:22.284Z,101910.97
2022-09-23T02:23:03.354Z,101914.47
2022-09-23T02:25:46.795Z,101917.00
2022-09-23T02:28:25.557Z,101922.25
2022-09-23T02:31:12.135Z,101922.25
2022-09-23T02:33:50.952Z,101913.59
2022-09-23T02:36:27.806Z,101913.66
2022-09-23T02:39:02.536Z,101910.31
2022-09-23T02:41:36.914Z,101906.88
2022-09-23T02:44:10.453Z,101901.72
2022-09-23T02:46:38.223Z,101894.78
2022-09-23T02:49:29.695Z,101896.47
2022-09-23T02:52:00.192Z,101898.22
2022-09-23T02:54:29.181Z,101896.47
2022-09-23T02:56:57.497Z,101892.09
2022-09-23T02:59:24.955Z,101895.72
2022-09-23T03:01:57.653Z,101896.72
2022-09-23T03:04:58.724Z,101895.94
2022-09-23T03:07:47.176Z,101891.63
2022-09-23T03:10:22.721Z,101896.75
2022-09-23T03:13:26.116Z,101896.38
2022-09-23T03:16:03.418Z,101898.94
2022-09-23T03:19:05.371Z,101902.28
2022-09-23T03:21:45.634Z,101907.53
2022-09-23T03:24:14.577Z,101894.69
2022-09-23T03:26:45.716Z,101904.09
2022-09-23T03:29:15.736Z,101905.81
2022-09-23T03:31:43.369Z,101906.59
2022-09-23T03:34:25.399Z,101905.38
2022-09-23T03:37:01.008Z,101912.19
2022-09-23T03:39:31.780Z,101919.03
2022-09-23T03:42:03.687Z,101911.97
2022-09-23T03:44:31.294Z,101916.97
2022-09-23T03:47:02.552Z,101917.81
2022-09-23T03:49:35.225Z,101914.06
2022-09-23T03:52:03.697Z,101912.91
2022-09-23T03:54:30.859Z,101930.84
2022-09-23T03:56:58.835Z,101920.03
2022-09-23T03:59:26.838Z,101921.34
2022-09-23T04:01:54.442Z,101915.72
2022-09-23T04:04:21.248Z,101911.06
2022-09-23T04:06:48.303Z,101913.44
2022-09-23T04:09:15.391Z,101902.91
2022-09-23T04:11:42.292Z,101916.47
2022-09-23T04:14:09.383Z,101921.50
2022-09-23T04:16:36.223Z,101905.94
2022-09-23T04:19:04.963Z,101923.06
2022-09-23T04:21:32.527Z,101913.47
2022-09-23T04:23:59.318Z,101918.66
2022-09-23T04:26:26.166Z,101910.78
2022-09-23T04:28:54.688Z,101919.41
2022-09-23T04:31:23.777Z,101915.00
2022-09-23T04:33:51.440Z,101912.34
2022-09-23T04:36:18.244Z,101904.50
2022-09-23T04:38:46.508Z,101903.63
2022-09-23T04:41:13.814Z,101914.88
2022-09-23T04:43:40.862Z,101910.53
2022-09-23T04:46:09.646Z,101918.16
2022-09-23T04:48:37.820Z,101918.94
2022-09-23T04:51:14.146Z,101927.50
2022-09-23T04:53:43.598Z,101921.22
2022-09-23T04:56:16.481Z,101924.59
2022-09-23T04:58:43.891Z,101919.31
2022-09-23T05:01:18.402Z,101925.22
2022-09-23T05:03:46.886Z,101929.41
2022-09-23T05:06:14.904Z,101930.06
2022-09-23T05:08:46.916Z,101926.44
2022-09-23T05:11:13.862Z,101934.16
2022-09-23T05:13:40.611Z,101930.66
2022-09-23T05:16:12.269Z,101931.44
2022-09-23T05:18:44.127Z,101934.97
2022-09-23T05:21:12.605Z,101934.09
2022-09-23T05:23:43.490Z,101939.28
2022-09-23T05:26:12.541Z,101936.59
2022-09-23T05:28:39.986Z,101931.25
2022-09-23T05:31:08.541Z,101925.94
2022-09-23T05:33:36.751Z,101921.50
2022-09-23T05:36:04.867Z,101930.97
2022-09-23T05:38:32.230Z,101936.13
2022-09-23T05:41:01.841Z,101939.53
2022-09-23T05:43:29.186Z,101935.94
2022-09-23T05:46:07.928Z,101949.88
2022-09-23T05:48:36.341Z,101956.81
2022-09-23T05:51:04.458Z,101946.31
2022-09-23T05:53:31.669Z,101950.56
2022-09-23T05:55:58.660Z,101953.09
2022-09-23T05:58:25.848Z,101950.53
2022-09-23T06:00:52.716Z,101953.00
2022-09-23T06:03:20.753Z,101957.34
2022-09-23T06:05:48.590Z,101955.53
2022-09-23T06:08:15.689Z,101955.63
2022-09-23T06:10:45.198Z,101965.06
2022-09-23T06:13:12.652Z,101965.91
2022-09-23T06:15:40.048Z,101967.59
2022-09-23T06:18:07.359Z,101973.63
2022-09-23T06:20:35.402Z,101977.16
2022-09-23T06:23:09.991Z,101975.47
2022-09-23T06:25:41.196Z,101980.75
2022-09-23T06:28:12.764Z,101975.53
2022-09-23T06:30:40.112Z,101977.25
2022-09-23T06:33:06.954Z,101978.91
2022-09-23T06:35:33.838Z,101977.97
2022-09-23T06:38:04.436Z,101981.38
2022-09-23T06:40:32.126Z,101980.41
2022-09-23T06:43:02.516Z,101977.66
2022-09-23T06:45:29.501Z,101974.94
2022-09-23T06:47:58.364Z,101976.66
2022-09-23T06:50:26.667Z,101968.78
2022-09-23T06:52:58.655Z,101975.69
2022-09-23T06:55:28.494Z,101979.16
2022-09-23T06:57:58.104Z,101985.31
2022-09-23T07:00:26.481Z,101983.59
2022-09-23T07:02:54.969Z,101978.34
2022-09-23T07:05:22.541Z,101984.47
2022-09-23T07:07:49.735Z,101989.63
2022-09-23T07:10:16.931Z,101992.94
2022-09-23T07:12:43.874Z,101990.19
2022-09-23T07:15:11.631Z,101995.22
2022-09-23T07:17:42.987Z,101986.78
2022-09-23T07:20:11.674Z,101988.72
2022-09-23T07:22:38.818Z,101994.53
2022-09-23T07:25:06.477Z,102002.56
2022-09-23T07:27:33.489Z,102000.34
2022-09-23T07:30:00.425Z,102004.72
2022-09-23T07:32:29.688Z,102007.16
2022-09-23T07:34:57.997Z,102008.91
2022-09-23T07:37:24.948Z,101994.13
2022-09-23T07:39:51.887Z,101999.41
2022-09-23T07:42:18.693Z,101995.09
2022-09-23T07:44:47.104Z,102006.34
2022-09-23T07:47:14.357Z,102012.25
2022-09-23T07:49:41.678Z,102006.38
2022-09-23T07:52:08.564Z,102010.41
2022-09-23T07:54:35.606Z,102012.06
2022-09-23T07:57:02.508Z,102020.06
2022-09-23T07:59:29.292Z,102009.53
2022-09-23T08:01:57.553Z,102009.59
2022-09-23T08:04:28.505Z,102020.91
2022-09-23T08:07:00.572Z,102028.38
2022-09-23T08:09:33.114Z,102018.69
2022-09-23T08:12:00.912Z,102026.50
2022-09-23T08:14:27.817Z,102030.06
2022-09-23T08:16:54.708Z,102029.25
2022-09-23T08:19:21.696Z,102034.63
2022-09-23T08:21:48.648Z,102035.03
2022-09-23T08:24:18.054Z,102042.16
2022-09-23T08:26:46.688Z,102039.78
2022-09-23T08:29:15.164Z,102031.59
2022-09-23T08:31:42.475Z,102037.63
2022-09-23T08:34:09.960Z,102032.84
2022-09-23T08:36:37.179Z,102035.09
2022-09-23T08:39:05.603Z,102030.41
2022-09-23T08:41:35.265Z,102036.31
2022-09-23T08:44:09.819Z,102027.66
2022-09-23T08:46:42.522Z,102028.47
2022-09-23T08:49:14.558Z,102030.72
2022-09-23T08:51:47.479Z,102020.13
2022-09-23T08:54:17.683Z,102025.31
2022-09-23T08:56:49.340Z,102023.53
2022-09-23T08:59:44.200Z,102028.97
2022-09-23T09:02:20.482Z,102027.78
2022-09-23T09:04:59.278Z,102026.34
2022-09-23T09:07:36.725Z,102027.25
2022-09-23T09:10:14.883Z,102038.50
2022-09-23T09:13:00.368Z,102030.09
2022-09-23T09:15:29.097Z,102036.38
2022-09-23T09:17:59.518Z,102032.00
2022-09-23T09:20:51.611Z,102044.56
2022-09-23T09:23:20.194Z,102041.72
2022-09-23T09:25:54.404Z,102035.88
2022-09-23T09:28:31.161Z,102039.31
2022-09-23T09:31:02.870Z,102041.31
2022-09-23T09:33:50.471Z,102033.16
2022-09-23T09:36:30.948Z,102040.03
2022-09-23T09:39:01.054Z,102029.22
2022-09-23T09:41:31.727Z,102022.09
2022-09-23T09:44:03.654Z,102032.38
2022-09-23T09:46:52.401Z,102027.13
2022-09-23T09:49:40.553Z,102026.69
2022-09-23T09:52:17.009Z,102026.47
2022-09-23T09:54:44.467Z,102023.72
2022-09-23T09:57:19.548Z,102022.19
2022-09-23T09:59:46.451Z,102016.88
2022-09-23T10:02:37.151Z,102019.06
2022-09-23T10:05:07.212Z,102019.56
2022-09-23T10:07:34.677Z,102018.25
2022-09-23T10:10:33.218Z,102014.69
2022-09-23T10:13:15.610Z,102009.50
2022-09-23T10:15:45.337Z,102011.59
2022-09-23T10:18:28.347Z,102020.47
2022-09-23T10:21:08.660Z,102010.53
2022-09-23T10:23:44.757Z,102013.13
2022-09-23T10:26:14.213Z,102012.84
2022-09-23T10:28:59.875Z,102006.91
2022-09-23T10:31:29.351Z,102011.47
2022-09-23T10:34:01.984Z,102007.19
2022-09-23T10:36:33.181Z,102004.41
2022-09-23T10:39:22.828Z,102007.50
2022-09-23T10:42:23.082Z,102007.34
2022-09-23T10:45:39.730Z,102004.50
2022-09-23T10:48:24.969Z,102004.34
2022-09-23T10:50:57.563Z,102004.72
2022-09-23T10:54:01.674Z,101998.97
2022-09-23T10:56:35.687Z,101993.84
2022-09-23T10:59:28.176Z,102001.38
2022-09-23T11:02:19.446Z,102000.84
2022-09-23T11:05:07.636Z,101997.03
2022-09-23T11:08:06.382Z,101995.56
2022-09-23T11:11:04.606Z,102001.00
2022-09-23T11:13:44.211Z,101993.53
2022-09-23T11:16:41.758Z,101993.66
2022-09-23T11:19:34.729Z,102003.59
2022-09-23T11:22:28.296Z,102003.06
2022-09-23T11:25:28.218Z,101997.47
2022-09-23T11:28:36.111Z,102000.72
2022-09-23T11:31:21.472Z,102006.03
2022-09-23T11:34:08.136Z,102014.75
2022-09-23T11:37:03.819Z,102008.16
2022-09-23T11:40:02.581Z,102007.00
2022-09-23T11:42:35.656Z,102002.50
2022-09-23T11:45:29.740Z,102006.75
2022-09-23T11:48:18.851Z,101994.25
2022-09-23T11:50:58.800Z,101993.50
2022-09-23T11:53:38.806Z,101992.09
2022-09-23T11:56:34.626Z,101995.66
2022-09-23T11:59:40.609Z,101990.75
2022-09-23T12:02:20.863Z,101991.19
2022-09-23T12:05:11.431Z,101986.25
2022-09-23T12:07:56.874Z,101978.75
2022-09-23T12:10:36.521Z,101985.75
2022-09-23T12:13:21.796Z,101983.13
2022-09-23T12:16:20.774Z,101988.44
2022-09-23T12:19:28.191Z,101982.25
2022-09-23T12:22:09.821Z,101987.31
2022-09-23T12:24:42.251Z,101983.91
2022-09-23T12:27:23.170Z,101981.25
2022-09-23T12:29:59.951Z,101987.81
2022-09-23T12:32:27.455Z,101984.69
2022-09-23T12:34:55.033Z,101974.53
2022-09-23T12:37:38.287Z,101976.28
2022-09-23T12:40:22.259Z,101976.25
2022-09-23T12:42:50.304Z,101972.69
2022-09-23T12:45:39.892Z,101972.06
2022-09-23T12:48:18.920Z,101973.44
2022-09-23T12:51:08.740Z,101978.47
2022-09-23T12:53:35.540Z,101979.28
2022-09-23T12:56:15.945Z,101973.56
2022-09-23T12:58:42.684Z,101978.31
2022-09-23T13:01:15.745Z,101975.63
2022-09-23T13:04:06.574Z,101978.81
2022-09-23T13:06:53.232Z,101972.81
2022-09-23T13:09:26.016Z,101971.13
2022-09-23T13:11:57.010Z,101969.41
2022-09-23T13:14:27.514Z,101980.06
2022-09-23T13:16:58.523Z,101984.84
2022-09-23T13:19:28.239Z,101992.13
2022-09-23T13:21:55.135Z,101994.06
2022-09-23T13:24:31.448Z,101992.75
2022-09-23T13:27:15.704Z,101999.63
2022-09-23T13:29:45.667Z,101994.03
2022-09-23T13:32:15.244Z,101992.78
2022-09-23T13:34:45.087Z,101995.44
2022-09-23T13:37:28.160Z,101997.94
2022-09-23T13:40:17.592Z,101994.00
2022-09-23T13:42:51.387Z,101991.69
2022-09-23T13:45:21.452Z,101988.97
2022-09-23T13:47:50.347Z,101986.06
2022-09-23T13:50:23.691Z,101988.41
2022-09-23T13:53:02.718Z,101995.13
2022-09-23T13:55:33.250Z,101987.81
2022-09-23T13:58:13.871Z,101982.69
2022-09-23T14:00:41.334Z,101983.97
2022-09-23T14:03:23.217Z,101985.16
2022-09-23T14:05:51.916Z,101988.00
2022-09-23T14:08:19.822Z,101984.09
2022-09-23T14:10:47.544Z,101973.69
2022-09-23T14:13:25.731Z,101974.31
2022-09-23T14:15:56.146Z,101977.06
2022-09-23T14:18:38.481Z,101978.78
2022-09-23T14:21:05.846Z,101979.19
2022-09-23T14:23:32.987Z,101973.09
2022-09-23T14:26:01.835Z,101980.78
2022-09-23T14:28:29.027Z,101980.25
2022-09-23T14:30:58.590Z,101976.16
2022-09-23T14:33:32.965Z,101991.81
2022-09-23T14:36:29.439Z,101988.88
2022-09-23T14:39:08.734Z,101982.44
2022-09-23T14:41:39.398Z,101981.19
2022-09-23T14:44:08.265Z,101974.84
2022-09-23T14:46:37.601Z,101978.28
2022-09-23T14:49:14.022Z,101981.66
2022-09-23T14:51:54.234Z,101977.91
2022-09-23T14:54:40.111Z,101978.66
2022-09-23T14:57:28.662Z,101974.53
2022-09-23T15:00:09.944Z,101968.84
2022-09-23T15:02:37.777Z,101972.13
2022-09-23T15:05:31.644Z,101971.75
2022-09-23T15:08:02.427Z,101971.31
2022-09-23T15:10:37.770Z,101967.03
2022-09-23T15:13:28.928Z,101974.13
2022-09-23T15:15:58.109Z,101979.28
2022-09-23T15:18:28.091Z,101975.56
2022-09-23T15:21:00.991Z,101978.47
2022-09-23T15:23:55.018Z,101980.00
2022-09-23T15:26:40.805Z,101983.84
2022-09-23T15:29:09.178Z,101976.56
2022-09-23T15:31:37.584Z,101976.16
2022-09-23T15:34:09.871Z,101976.31
2022-09-23T15:36:38.409Z,101981.59
2022-09-23T15:39:08.882Z,101985.28
2022-09-23T15:41:35.682Z,101986.03
2022-09-23T15:44:13.830Z,101982.84
2022-09-23T15:46:52.061Z,101979.75
2022-09-23T15:49:41.926Z,101980.69
2022-09-23T15:52:12.405Z,101975.81
2022-09-23T15:54:39.397Z,101979.09
2022-09-23T15:57:06.245Z,101982.50
2022-09-23T15:59:33.187Z,101976.31
2022-09-23T16:02:08.067Z,101981.50
2022-09-23T16:04:36.194Z,101978.63
2022-09-23T16:07:04.631Z,101979.84
2022-09-23T16:09:31.879Z,101975.28
2022-09-23T16:11:58.820Z,101974.81
2022-09-23T16:14:25.684Z,101980.16
2022-09-23T16:16:52.666Z,101980.38
2022-09-23T16:19:19.658Z,101990.09
2022-09-23T16:21:46.500Z,101981.13
2022-09-23T16:24:17.336Z,101986.72
2022-09-23T16:26:46.684Z,101995.81
2022-09-23T16:29:14.145Z,101995.81
2022-09-23T16:31:41.229Z,101989.06
2022-09-23T16:34:08.188Z,102001.53
2022-09-23T16:36:41.326Z,102001.16
2022-09-23T16:39:11.243Z,101998.16
2022-09-23T16:41:38.699Z,101997.66
2022-09-23T16:44:10.761Z,102006.28
2022-09-23T16:46:37.558Z,102002.75
2022-09-23T16:49:04.956Z,102002.59
2022-09-23T16:51:38.450Z,102005.91
2022-09-23T16:54:10.394Z,102001.94
2022-09-23T16:56:41.831Z,102016.78
2022-09-23T16:59:09.380Z,102033.72
2022-09-23T17:01:54.847Z,102023.53
2022-09-23T17:04:22.733Z,102024.06
2022-09-23T17:06:51.519Z,102036.88
2022-09-23T17:09:20.165Z,102031.19
2022-09-23T17:11:51.603Z,102032.47
2022-09-23T17:14:18.495Z,102031.09
2022-09-23T17:16:45.390Z,102027.19
2022-09-23T17:19:12.697Z,102026.13
2022-09-23T17:21:39.628Z,102031.66
2022-09-23T17:24:07.202Z,102026.00
2022-09-23T17:26:34.402Z,102027.34
2022-09-23T17:29:02.288Z,102029.59
2022-09-23T17:31:30.340Z,102034.41
2022-09-23T17:33:57.231Z,102033.97
2022-09-23T17:36:24.445Z,102029.13
2022-09-23T17:38:54.604Z,102047.91
2022-09-23T17:41:21.854Z,102044.81
2022-09-23T17:43:55.007Z,102041.56
2022-09-23T17:46:22.077Z,102044.47
2022-09-23T17:48:49.298Z,102039.41
2022-09-23T17:51:19.950Z,102041.38
2022-09-23T17:53:48.223Z,102049.34
2022-09-23T17:56:17.675Z,102049.44
2022-09-23T17:58:46.304Z,102061.78
2022-09-23T18:01:18.194Z,102065.31
2022-09-23T18:03:45.406Z,102061.06
2022-09-23T18:06:21.623Z,102067.34
2022-09-23T18:08:50.613Z,102084.09
2022-09-23T18:11:26.567Z,102080.78
2022-09-23T18:13:54.540Z,102081.00
2022-09-23T18:16:23.811Z,102087.34
2022-09-23T18:18:52.730Z,102089.38
2022-09-23T18:21:20.753Z,102092.38
2022-09-23T18:23:48.001Z,102104.09
2022-09-23T18:26:17.001Z,102109.66
2022-09-23T18:28:44.149Z,102100.50
2022-09-23T18:31:11.924Z,102099.19
2022-09-23T18:33:39.010Z,102107.53
2022-09-23T18:36:07.294Z,102112.38
2022-09-23T18:38:34.656Z,102105.78
2022-09-23T18:41:02.077Z,102106.84
2022-09-23T18:43:37.510Z,102114.75
2022-09-23T18:46:18.085Z,102116.69
2022-09-23T18:49:03.946Z,102126.56
2022-09-23T18:51:32.630Z,102124.91
2022-09-23T18:54:01.457Z,102138.06
2022-09-23T18:56:34.815Z,102135.44
2022-09-23T18:59:01.704Z,102130.19
2022-09-23T19:01:28.877Z,102132.97
2022-09-23T19:03:56.837Z,102138.38
2022-09-23T19:06:24.996Z,102138.56
2022-09-23T19:08:53.634Z,102145.09
2022-09-23T19:11:21.757Z,102134.88
2022-09-23T19:13:54.407Z,102145.78
2022-09-23T19:16:24.917Z,102145.25
2022-09-23T19:18:52.587Z,102141.59
2022-09-23T19:21:21.936Z,102152.59
2022-09-23T19:23:51.490Z,102165.53
2022-09-23T19:26:20.989Z,102162.56
2022-09-23T19:28:56.224Z,102171.34
2022-09-23T19:31:29.458Z,102165.63
2022-09-23T19:33:58.620Z,102167.84
2022-09-23T19:36:34.013Z,102164.78
2022-09-23T19:39:03.515Z,102155.91
2022-09-23T19:41:35.644Z,102171.19
2022-09-23T19:44:03.642Z,102168.44
2022-09-23T19:46:32.631Z,102177.88
2022-09-23T19:49:00.627Z,102181.19
2022-09-23T19:51:28.429Z,102176.53
2022-09-23T19:53:55.432Z,102182.34
2022-09-23T19:56:22.582Z,102174.84
2022-09-23T19:58:55.817Z,102182.06
2022-09-23T20:01:23.475Z,102188.34
2022-09-23T20:03:50.883Z,102186.66
2022-09-23T20:06:18.499Z,102185.81
2022-09-23T20:08:46.167Z,102185.81
2022-09-23T20:11:31.738Z,102185.59
2022-09-23T20:14:01.830Z,102190.78
2022-09-23T20:16:37.328Z,102201.16
2022-09-23T20:19:05.136Z,102199.53
2022-09-23T20:21:33.738Z,102202.31
2022-09-23T20:24:01.383Z,102201.66
2022-09-23T20:26:46.848Z,102202.00
2022-09-23T20:29:14.404Z,102198.84
2022-09-23T20:31:41.677Z,102200.16
2022-09-23T20:34:10.791Z,102204.81
2022-09-23T20:36:39.742Z,102210.44
2022-09-23T20:39:06.890Z,102207.28
2022-09-23T20:41:37.987Z,102208.41
2022-09-23T20:44:09.891Z,102208.59
2022-09-23T20:46:36.939Z,102215.78
2022-09-23T20:49:04.601Z,102205.63
2022-09-23T20:51:33.587Z,102213.69
2022-09-23T20:54:01.236Z,102201.00
2022-09-23T20:56:29.302Z,102213.38
2022-09-23T20:59:03.858Z,102223.13
2022-09-23T21:01:35.328Z,102216.47
2022-09-23T21:04:05.078Z,102217.50
2022-09-23T21:06:33.816Z,102223.84
2022-09-23T21:09:01.064Z,102217.06
2022-09-23T21:11:29.349Z,102218.00
2022-09-23T21:13:56.796Z,102221.53
2022-09-23T21:16:24.771Z,102226.81
2022-09-23T21:18:52.569Z,102231.22
2022-09-23T21:21:22.318Z,102230.34
2022-09-23T21:23:50.614Z,102232.91
2022-09-23T21:26:20.229Z,102227.72
2022-09-23T21:28:52.090Z,102217.34
2022-09-23T21:31:25.883Z,102213.25
2022-09-23T21:33:59.330Z,102218.41
2022-09-23T21:36:30.834Z,102221.94
2022-09-23T21:38:58.280Z,102223.63
2022-09-23T21:41:25.855Z,102226.94
2022-09-23T21:43:52.900Z,102226.00
2022-09-23T21:46:21.050Z,102230.16
2022-09-23T21:48:53.240Z,102232.59
2022-09-23T21:51:25.915Z,102225.56
2022-09-23T21:53:58.102Z,102225.22
2022-09-23T21:56:27.285Z,102224.19
2022-09-23T21:58:55.513Z,102219.75
2022-09-23T22:01:23.786Z,102225.69
2022-09-23T22:03:56.286Z,102231.59
2022-09-23T22:06:27.139Z,102215.84
2022-09-23T22:08:59.151Z,102227.84
2022-09-23T22:11:50.024Z,102228.63
2022-09-23T22:14:19.006Z,102225.81
2022-09-23T22:16:46.618Z,102220.47
2022-09-23T22:19:15.304Z,102229.03
2022-09-23T22:21:45.289Z,102224.63
2022-09-23T22:24:12.989Z,102221.00
2022-09-23T22:26:42.167Z,102216.50
2022-09-23T22:29:33.149Z,102225.16
2022-09-23T22:32:23.474Z,102215.50
2022-09-23T22:34:51.949Z,102218.91
2022-09-23T22:37:28.842Z,102212.72
2022-09-23T22:39:56.111Z,102210.06
2022-09-23T22:42:23.141Z,102197.25
2022-09-23T22:44:51.059Z,102211.66
2022-09-23T22:47:19.395Z,102215.16
2022-09-23T22:49:47.230Z,102216.00
2022-09-23T22:52:21.136Z,102221.28
2022-09-23T22:54:48.415Z,102212.75
2022-09-23T22:57:15.452Z,102218.28
2022-09-23T22:59:48.066Z,102220.38
2022-09-23T23:02:16.481Z,102219.06
2022-09-23T23:04:46.646Z,102216.00
2022-09-23T23:07:15.431Z,102220.84
2022-09-23T23:09:42.643Z,102212.56
2022-09-23T23:12:09.640Z,102217.13
2022-09-23T23:14:38.114Z,102222.53
2022-09-23T23:17:07.721Z,102213.03
2022-09-23T23:19:36.411Z,102214.78
2022-09-23T23:22:06.771Z,102217.28
2022-09-23T23:24:33.727Z,102218.88
2022-09-23T23:27:00.581Z,102220.50
2022-09-23T23:29:28.064Z,102223.78
2022-09-23T23:31:55.064Z,102221.84
2022-09-23T23:34:22.215Z,102200.22
2022-09-23T23:36:55.140Z,102225.78
2022-09-23T23:39:23.836Z,102231.69
2022-09-23T23:41:55.424Z,102227.13
2022-09-23T23:44:23.900Z,102214.91
2022-09-23T23:46:51.204Z,102225.06
2022-09-23T23:49:18.273Z,102223.19
2022-09-23T23:51:45.170Z,102216.09
2022-09-23T23:54:12.776Z,102224.66
2022-09-23T23:56:39.668Z,102223.63
2022-09-23T23:59:06.871Z,102222.69
